sensor_id;sensor_type;location;lat;lon;timestamp;P1;durP1;ratioP1;P2;durP2;ratioP2
48835;SDS011;62581;47.342;7.908;2023-12-22T00:01:12;2.13;;;0.70;;
48835;SDS011;62581;47.342;7.908;2023-12-22T00:03:40;2.25;;;0.90;;
48835;SDS011;62581;47.342;7.908;2023-12-22T00:06:09;1.83;;;0.88;;
48835;SDS011;62581;47.342;7.908;2023-12-22T00:08:36;2.25;;;0.75;;
48835;SDS011;62581;47.342;7.908;2023-12-22T00:11:03;3.03;;;0.80;;
48835;SDS011;62581;47.342;7.908;2023-12-22T00:13:30;1.05;;;0.50;;
48835;SDS011;62581;47.342;7.908;2023-12-22T00:15:58;1.83;;;1.10;;
48835;SDS011;62581;47.342;7.908;2023-12-22T00:18:26;1.45;;;0.60;;
48835;SDS011;62581;47.342;7.908;2023-12-22T00:20:52;1.67;;;0.70;;
48835;SDS011;62581;47.342;7.908;2023-12-22T00:23:21;1.58;;;0.63;;
48835;SDS011;62581;47.342;7.908;2023-12-22T00:25:48;2.17;;;0.60;;
48835;SDS011;62581;47.342;7.908;2023-12-22T00:28:15;1.13;;;0.40;;
48835;SDS011;62581;47.342;7.908;2023-12-22T00:30:42;0.40;;;0.40;;
48835;SDS011;62581;47.342;7.908;2023-12-22T00:33:09;1.27;;;0.50;;
48835;SDS011;62581;47.342;7.908;2023-12-22T00:35:36;1.48;;;0.60;;
48835;SDS011;62581;47.342;7.908;2023-12-22T00:38:03;2.67;;;0.80;;
48835;SDS011;62581;47.342;7.908;2023-12-22T00:40:31;4.22;;;0.95;;
48835;SDS011;62581;47.342;7.908;2023-12-22T00:42:58;2.85;;;0.85;;
48835;SDS011;62581;47.342;7.908;2023-12-22T00:45:25;1.95;;;0.88;;
48835;SDS011;62581;47.342;7.908;2023-12-22T00:47:52;0.77;;;0.57;;
48835;SDS011;62581;47.342;7.908;2023-12-22T00:50:19;2.50;;;0.82;;
48835;SDS011;62581;47.342;7.908;2023-12-22T00:52:46;1.42;;;0.65;;
48835;SDS011;62581;47.342;7.908;2023-12-22T00:55:13;11.73;;;1.20;;
48835;SDS011;62581;47.342;7.908;2023-12-22T00:57:42;9.00;;;1.50;;
48835;SDS011;62581;47.342;7.908;2023-12-22T01:00:09;3.53;;;1.10;;
48835;SDS011;62581;47.342;7.908;2023-12-22T01:02:37;5.97;;;1.17;;
48835;SDS011;62581;47.342;7.908;2023-12-22T01:05:05;3.70;;;1.33;;
48835;SDS011;62581;47.342;7.908;2023-12-22T01:07:32;5.00;;;1.10;;
48835;SDS011;62581;47.342;7.908;2023-12-22T01:09:59;5.97;;;1.38;;
48835;SDS011;62581;47.342;7.908;2023-12-22T01:12:27;3.08;;;0.93;;
48835;SDS011;62581;47.342;7.908;2023-12-22T01:14:55;5.07;;;0.95;;
48835;SDS011;62581;47.342;7.908;2023-12-22T01:19:50;4.53;;;1.40;;
48835;SDS011;62581;47.342;7.908;2023-12-22T01:22:17;2.90;;;0.93;;
48835;SDS011;62581;47.342;7.908;2023-12-22T01:24:44;5.45;;;1.65;;
48835;SDS011;62581;47.342;7.908;2023-12-22T01:27:11;4.68;;;1.00;;
48835;SDS011;62581;47.342;7.908;2023-12-22T01:29:38;3.42;;;1.17;;
48835;SDS011;62581;47.342;7.908;2023-12-22T01:32:07;3.05;;;1.08;;
48835;SDS011;62581;47.342;7.908;2023-12-22T01:34:34;0.70;;;0.70;;
48835;SDS011;62581;47.342;7.908;2023-12-22T01:37:01;9.45;;;1.15;;
48835;SDS011;62581;47.342;7.908;2023-12-22T01:39:28;5.28;;;1.40;;
48835;SDS011;62581;47.342;7.908;2023-12-22T01:41:54;2.85;;;1.30;;
48835;SDS011;62581;47.342;7.908;2023-12-22T01:44:21;3.90;;;0.85;;
48835;SDS011;62581;47.342;7.908;2023-12-22T01:46:48;6.55;;;0.98;;
48835;SDS011;62581;47.342;7.908;2023-12-22T01:49:18;3.30;;;1.13;;
48835;SDS011;62581;47.342;7.908;2023-12-22T01:51:48;5.00;;;1.75;;
48835;SDS011;62581;47.342;7.908;2023-12-22T01:54:16;5.50;;;1.05;;
48835;SDS011;62581;47.342;7.908;2023-12-22T01:56:43;5.28;;;0.90;;
48835;SDS011;62581;47.342;7.908;2023-12-22T01:59:10;2.50;;;1.15;;
48835;SDS011;62581;47.342;7.908;2023-12-22T02:01:38;2.15;;;0.85;;
48835;SDS011;62581;47.342;7.908;2023-12-22T02:04:06;5.57;;;1.20;;
48835;SDS011;62581;47.342;7.908;2023-12-22T02:06:35;1.25;;;0.50;;
48835;SDS011;62581;47.342;7.908;2023-12-22T02:11:30;3.22;;;0.70;;
48835;SDS011;62581;47.342;7.908;2023-12-22T02:13:57;3.38;;;1.23;;
48835;SDS011;62581;47.342;7.908;2023-12-22T02:16:26;1.75;;;0.60;;
48835;SDS011;62581;47.342;7.908;2023-12-22T02:18:59;1.60;;;0.50;;
48835;SDS011;62581;47.342;7.908;2023-12-22T02:21:37;2.47;;;0.57;;
48835;SDS011;62581;47.342;7.908;2023-12-22T02:24:29;3.42;;;0.70;;
48835;SDS011;62581;47.342;7.908;2023-12-22T02:26:57;1.42;;;0.52;;
48835;SDS011;62581;47.342;7.908;2023-12-22T02:29:30;1.33;;;0.40;;
48835;SDS011;62581;47.342;7.908;2023-12-22T02:32:02;1.48;;;0.50;;
48835;SDS011;62581;47.342;7.908;2023-12-22T02:34:33;0.95;;;0.50;;
48835;SDS011;62581;47.342;7.908;2023-12-22T02:37:04;1.50;;;0.40;;
48835;SDS011;62581;47.342;7.908;2023-12-22T02:39:35;2.63;;;0.60;;
48835;SDS011;62581;47.342;7.908;2023-12-22T02:42:02;1.00;;;0.35;;
48835;SDS011;62581;47.342;7.908;2023-12-22T02:44:31;0.52;;;0.40;;
48835;SDS011;62581;47.342;7.908;2023-12-22T02:46:58;2.13;;;0.57;;
48835;SDS011;62581;47.342;7.908;2023-12-22T02:49:28;0.45;;;0.38;;
48835;SDS011;62581;47.342;7.908;2023-12-22T02:51:54;3.15;;;0.65;;
48835;SDS011;62581;47.342;7.908;2023-12-22T02:54:20;1.98;;;0.52;;
48835;SDS011;62581;47.342;7.908;2023-12-22T02:56:49;4.82;;;1.00;;
48835;SDS011;62581;47.342;7.908;2023-12-22T02:59:16;3.78;;;0.88;;
48835;SDS011;62581;47.342;7.908;2023-12-22T03:01:43;3.60;;;1.33;;
48835;SDS011;62581;47.342;7.908;2023-12-22T03:04:10;0.77;;;0.50;;
48835;SDS011;62581;47.342;7.908;2023-12-22T03:06:37;1.20;;;0.70;;
48835;SDS011;62581;47.342;7.908;2023-12-22T03:09:04;2.45;;;0.63;;
48835;SDS011;62581;47.342;7.908;2023-12-22T03:11:31;2.95;;;0.80;;
48835;SDS011;62581;47.342;7.908;2023-12-22T03:14:00;2.28;;;0.98;;
48835;SDS011;62581;47.342;7.908;2023-12-22T03:16:27;3.65;;;1.20;;
48835;SDS011;62581;47.342;7.908;2023-12-22T03:18:54;4.05;;;1.10;;
48835;SDS011;62581;47.342;7.908;2023-12-22T03:21:21;2.08;;;0.95;;
48835;SDS011;62581;47.342;7.908;2023-12-22T03:23:48;4.47;;;1.00;;
48835;SDS011;62581;47.342;7.908;2023-12-22T03:26:15;6.35;;;1.50;;
48835;SDS011;62581;47.342;7.908;2023-12-22T03:28:41;2.70;;;1.20;;
48835;SDS011;62581;47.342;7.908;2023-12-22T03:31:10;6.00;;;1.33;;
48835;SDS011;62581;47.342;7.908;2023-12-22T03:33:37;6.10;;;2.20;;
48835;SDS011;62581;47.342;7.908;2023-12-22T03:36:04;3.45;;;1.20;;
48835;SDS011;62581;47.342;7.908;2023-12-22T03:38:31;8.18;;;1.23;;
48835;SDS011;62581;47.342;7.908;2023-12-22T03:40:58;5.95;;;1.40;;
48835;SDS011;62581;47.342;7.908;2023-12-22T03:43:25;4.65;;;1.17;;
48835;SDS011;62581;47.342;7.908;2023-12-22T03:45:52;5.75;;;1.35;;
48835;SDS011;62581;47.342;7.908;2023-12-22T03:48:20;5.97;;;1.50;;
48835;SDS011;62581;47.342;7.908;2023-12-22T03:50:47;5.70;;;1.83;;
48835;SDS011;62581;47.342;7.908;2023-12-22T03:53:14;5.38;;;1.80;;
48835;SDS011;62581;47.342;7.908;2023-12-22T03:55:41;3.17;;;1.33;;
48835;SDS011;62581;47.342;7.908;2023-12-22T03:58:08;9.50;;;1.50;;
48835;SDS011;62581;47.342;7.908;2023-12-22T04:00:35;7.03;;;1.23;;
48835;SDS011;62581;47.342;7.908;2023-12-22T04:03:03;9.70;;;1.88;;
48835;SDS011;62581;47.342;7.908;2023-12-22T04:05:31;6.33;;;1.67;;
48835;SDS011;62581;47.342;7.908;2023-12-22T04:07:58;7.53;;;1.77;;
48835;SDS011;62581;47.342;7.908;2023-12-22T04:10:25;7.53;;;1.60;;
48835;SDS011;62581;47.342;7.908;2023-12-22T04:12:52;7.20;;;1.65;;
48835;SDS011;62581;47.342;7.908;2023-12-22T04:15:19;8.85;;;1.70;;
48835;SDS011;62581;47.342;7.908;2023-12-22T04:17:46;7.00;;;1.23;;
48835;SDS011;62581;47.342;7.908;2023-12-22T04:20:14;10.37;;;2.00;;
48835;SDS011;62581;47.342;7.908;2023-12-22T04:22:43;6.82;;;1.50;;
48835;SDS011;62581;47.342;7.908;2023-12-22T04:25:10;7.82;;;1.65;;
48835;SDS011;62581;47.342;7.908;2023-12-22T04:27:37;11.70;;;1.58;;
48835;SDS011;62581;47.342;7.908;2023-12-22T04:30:04;11.25;;;1.88;;
48835;SDS011;62581;47.342;7.908;2023-12-22T04:32:32;5.18;;;2.38;;
48835;SDS011;62581;47.342;7.908;2023-12-22T04:34:59;8.02;;;2.17;;
48835;SDS011;62581;47.342;7.908;2023-12-22T04:37:26;5.65;;;1.30;;
48835;SDS011;62581;47.342;7.908;2023-12-22T04:39:54;3.72;;;1.45;;
48835;SDS011;62581;47.342;7.908;2023-12-22T04:42:21;4.15;;;1.00;;
48835;SDS011;62581;47.342;7.908;2023-12-22T04:44:50;6.28;;;1.48;;
48835;SDS011;62581;47.342;7.908;2023-12-22T04:47:17;8.05;;;1.50;;
48835;SDS011;62581;47.342;7.908;2023-12-22T04:49:44;9.80;;;2.70;;
48835;SDS011;62581;47.342;7.908;2023-12-22T04:52:11;7.65;;;1.80;;
48835;SDS011;62581;47.342;7.908;2023-12-22T04:54:38;11.23;;;1.88;;
48835;SDS011;62581;47.342;7.908;2023-12-22T04:57:07;8.00;;;1.70;;
48835;SDS011;62581;47.342;7.908;2023-12-22T04:59:34;9.32;;;1.73;;
48835;SDS011;62581;47.342;7.908;2023-12-22T05:02:00;6.75;;;1.88;;
48835;SDS011;62581;47.342;7.908;2023-12-22T05:04:27;17.88;;;1.80;;
48835;SDS011;62581;47.342;7.908;2023-12-22T05:06:54;5.00;;;1.50;;
48835;SDS011;62581;47.342;7.908;2023-12-22T05:09:22;10.73;;;1.80;;
48835;SDS011;62581;47.342;7.908;2023-12-22T05:11:50;6.53;;;2.58;;
48835;SDS011;62581;47.342;7.908;2023-12-22T05:14:18;13.48;;;2.15;;
48835;SDS011;62581;47.342;7.908;2023-12-22T05:16:45;8.68;;;1.90;;
48835;SDS011;62581;47.342;7.908;2023-12-22T05:19:12;10.43;;;1.90;;
48835;SDS011;62581;47.342;7.908;2023-12-22T05:21:39;6.28;;;1.52;;
48835;SDS011;62581;47.342;7.908;2023-12-22T05:24:06;10.65;;;2.03;;
48835;SDS011;62581;47.342;7.908;2023-12-22T05:26:33;9.93;;;1.75;;
48835;SDS011;62581;47.342;7.908;2023-12-22T05:29:00;9.95;;;2.33;;
48835;SDS011;62581;47.342;7.908;2023-12-22T05:31:28;10.60;;;1.90;;
48835;SDS011;62581;47.342;7.908;2023-12-22T05:33:57;8.18;;;1.55;;
48835;SDS011;62581;47.342;7.908;2023-12-22T05:36:24;5.47;;;1.30;;
48835;SDS011;62581;47.342;7.908;2023-12-22T05:38:51;10.68;;;2.35;;
48835;SDS011;62581;47.342;7.908;2023-12-22T05:41:18;7.82;;;1.55;;
48835;SDS011;62581;47.342;7.908;2023-12-22T05:43:45;6.88;;;1.60;;
48835;SDS011;62581;47.342;7.908;2023-12-22T05:46:12;12.98;;;1.95;;
48835;SDS011;62581;47.342;7.908;2023-12-22T05:48:41;10.80;;;2.03;;
48835;SDS011;62581;47.342;7.908;2023-12-22T05:51:07;5.40;;;1.98;;
48835;SDS011;62581;47.342;7.908;2023-12-22T05:53:38;7.10;;;1.90;;
48835;SDS011;62581;47.342;7.908;2023-12-22T05:56:06;10.70;;;2.65;;
48835;SDS011;62581;47.342;7.908;2023-12-22T05:58:43;8.52;;;1.73;;
48835;SDS011;62581;47.342;7.908;2023-12-22T06:01:13;11.70;;;1.95;;
48835;SDS011;62581;47.342;7.908;2023-12-22T06:03:43;7.35;;;1.80;;
48835;SDS011;62581;47.342;7.908;2023-12-22T06:06:10;8.57;;;1.90;;
48835;SDS011;62581;47.342;7.908;2023-12-22T06:08:37;7.45;;;1.92;;
48835;SDS011;62581;47.342;7.908;2023-12-22T06:11:04;8.68;;;2.03;;
48835;SDS011;62581;47.342;7.908;2023-12-22T06:13:31;8.57;;;1.60;;
48835;SDS011;62581;47.342;7.908;2023-12-22T06:15:58;9.82;;;1.52;;
48835;SDS011;62581;47.342;7.908;2023-12-22T06:18:25;6.82;;;2.00;;
48835;SDS011;62581;47.342;7.908;2023-12-22T06:20:53;8.52;;;1.67;;
48835;SDS011;62581;47.342;7.908;2023-12-22T06:23:22;7.38;;;1.70;;
48835;SDS011;62581;47.342;7.908;2023-12-22T06:25:48;10.60;;;2.15;;
48835;SDS011;62581;47.342;7.908;2023-12-22T06:28:15;6.57;;;1.67;;
48835;SDS011;62581;47.342;7.908;2023-12-22T06:30:43;13.25;;;2.10;;
48835;SDS011;62581;47.342;7.908;2023-12-22T06:33:09;11.13;;;2.30;;
48835;SDS011;62581;47.342;7.908;2023-12-22T06:35:37;7.72;;;2.08;;
48835;SDS011;62581;47.342;7.908;2023-12-22T06:38:07;9.13;;;1.50;;
48835;SDS011;62581;47.342;7.908;2023-12-22T06:40:34;10.70;;;2.17;;
48835;SDS011;62581;47.342;7.908;2023-12-22T06:43:01;9.30;;;1.65;;
48835;SDS011;62581;47.342;7.908;2023-12-22T06:45:29;4.97;;;1.90;;
48835;SDS011;62581;47.342;7.908;2023-12-22T06:47:56;5.05;;;2.03;;
48835;SDS011;62581;47.342;7.908;2023-12-22T06:50:23;4.15;;;1.33;;
48835;SDS011;62581;47.342;7.908;2023-12-22T06:52:50;10.45;;;1.95;;
48835;SDS011;62581;47.342;7.908;2023-12-22T06:55:19;5.22;;;1.30;;
48835;SDS011;62581;47.342;7.908;2023-12-22T06:57:45;10.20;;;1.58;;
48835;SDS011;62581;47.342;7.908;2023-12-22T07:00:13;4.45;;;1.92;;
48835;SDS011;62581;47.342;7.908;2023-12-22T07:02:40;7.72;;;1.50;;
48835;SDS011;62581;47.342;7.908;2023-12-22T07:07:57;10.60;;;1.98;;
48835;SDS011;62581;47.342;7.908;2023-12-22T07:10:25;13.15;;;1.83;;
48835;SDS011;62581;47.342;7.908;2023-12-22T07:12:52;4.28;;;1.52;;
48835;SDS011;62581;47.342;7.908;2023-12-22T07:15:19;7.72;;;1.55;;
48835;SDS011;62581;47.342;7.908;2023-12-22T07:17:46;8.48;;;1.67;;
48835;SDS011;62581;47.342;7.908;2023-12-22T07:20:13;6.20;;;1.50;;
48835;SDS011;62581;47.342;7.908;2023-12-22T07:22:40;6.05;;;1.88;;
48835;SDS011;62581;47.342;7.908;2023-12-22T07:25:07;6.60;;;1.85;;
48835;SDS011;62581;47.342;7.908;2023-12-22T07:27:36;4.78;;;1.20;;
48835;SDS011;62581;47.342;7.908;2023-12-22T07:30:03;8.63;;;1.55;;
48835;SDS011;62581;47.342;7.908;2023-12-22T07:32:31;5.20;;;1.35;;
48835;SDS011;62581;47.342;7.908;2023-12-22T07:34:58;9.20;;;1.30;;
48835;SDS011;62581;47.342;7.908;2023-12-22T07:37:24;6.22;;;1.30;;
48835;SDS011;62581;47.342;7.908;2023-12-22T07:39:52;5.47;;;1.42;;
48835;SDS011;62581;47.342;7.908;2023-12-22T07:42:19;3.60;;;1.10;;
48835;SDS011;62581;47.342;7.908;2023-12-22T07:44:47;4.88;;;1.20;;
48835;SDS011;62581;47.342;7.908;2023-12-22T07:47:14;7.57;;;1.17;;
48835;SDS011;62581;47.342;7.908;2023-12-22T07:49:41;4.93;;;1.45;;
48835;SDS011;62581;47.342;7.908;2023-12-22T07:52:07;5.68;;;1.35;;
48835;SDS011;62581;47.342;7.908;2023-12-22T07:54:34;7.75;;;1.70;;
48835;SDS011;62581;47.342;7.908;2023-12-22T07:57:02;12.67;;;1.77;;
48835;SDS011;62581;47.342;7.908;2023-12-22T07:59:29;6.82;;;1.13;;
48835;SDS011;62581;47.342;7.908;2023-12-22T08:01:57;7.85;;;1.50;;
48835;SDS011;62581;47.342;7.908;2023-12-22T08:04:24;9.18;;;1.85;;
48835;SDS011;62581;47.342;7.908;2023-12-22T08:06:50;5.55;;;1.35;;
48835;SDS011;62581;47.342;7.908;2023-12-22T08:09:17;5.60;;;1.33;;
48835;SDS011;62581;47.342;7.908;2023-12-22T08:11:44;8.55;;;1.52;;
48835;SDS011;62581;47.342;7.908;2023-12-22T08:14:12;7.25;;;1.08;;
48835;SDS011;62581;47.342;7.908;2023-12-22T08:16:40;2.38;;;0.75;;
48835;SDS011;62581;47.342;7.908;2023-12-22T08:21:37;3.92;;;1.00;;
48835;SDS011;62581;47.342;7.908;2023-12-22T08:24:04;2.90;;;0.70;;
48835;SDS011;62581;47.342;7.908;2023-12-22T08:26:31;6.07;;;1.05;;
48835;SDS011;62581;47.342;7.908;2023-12-22T08:28:58;5.72;;;1.08;;
48835;SDS011;62581;47.342;7.908;2023-12-22T08:31:25;4.15;;;0.93;;
48835;SDS011;62581;47.342;7.908;2023-12-22T08:33:52;4.35;;;0.80;;
48835;SDS011;62581;47.342;7.908;2023-12-22T08:36:20;5.15;;;1.13;;
48835;SDS011;62581;47.342;7.908;2023-12-22T08:38:47;3.08;;;1.10;;
48835;SDS011;62581;47.342;7.908;2023-12-22T08:41:14;4.40;;;1.10;;
48835;SDS011;62581;47.342;7.908;2023-12-22T08:43:41;3.40;;;0.80;;
48835;SDS011;62581;47.342;7.908;2023-12-22T08:46:08;7.70;;;1.20;;
48835;SDS011;62581;47.342;7.908;2023-12-22T08:48:35;4.45;;;0.82;;
48835;SDS011;62581;47.342;7.908;2023-12-22T08:51:02;2.78;;;1.17;;
48835;SDS011;62581;47.342;7.908;2023-12-22T08:53:31;2.63;;;0.77;;
48835;SDS011;62581;47.342;7.908;2023-12-22T08:56:02;3.70;;;1.05;;
48835;SDS011;62581;47.342;7.908;2023-12-22T08:58:29;3.83;;;1.13;;
48835;SDS011;62581;47.342;7.908;2023-12-22T09:00:56;6.85;;;0.95;;
48835;SDS011;62581;47.342;7.908;2023-12-22T09:03:23;4.30;;;1.13;;
48835;SDS011;62581;47.342;7.908;2023-12-22T09:05:52;4.80;;;1.00;;
48835;SDS011;62581;47.342;7.908;2023-12-22T09:08:18;4.13;;;1.50;;
48835;SDS011;62581;47.342;7.908;2023-12-22T09:10:47;3.05;;;0.88;;
48835;SDS011;62581;47.342;7.908;2023-12-22T09:13:14;7.95;;;1.42;;
48835;SDS011;62581;47.342;7.908;2023-12-22T09:15:41;6.57;;;1.42;;
48835;SDS011;62581;47.342;7.908;2023-12-22T09:18:11;4.03;;;1.08;;
48835;SDS011;62581;47.342;7.908;2023-12-22T09:20:39;9.43;;;1.42;;
48835;SDS011;62581;47.342;7.908;2023-12-22T09:23:06;4.85;;;1.08;;
48835;SDS011;62581;47.342;7.908;2023-12-22T09:25:35;4.70;;;1.25;;
48835;SDS011;62581;47.342;7.908;2023-12-22T09:28:04;2.47;;;1.08;;
48835;SDS011;62581;47.342;7.908;2023-12-22T09:30:31;7.95;;;1.40;;
48835;SDS011;62581;47.342;7.908;2023-12-22T09:32:58;5.18;;;1.38;;
48835;SDS011;62581;47.342;7.908;2023-12-22T09:35:25;3.03;;;1.33;;
48835;SDS011;62581;47.342;7.908;2023-12-22T09:37:53;4.72;;;0.90;;
48835;SDS011;62581;47.342;7.908;2023-12-22T09:40:20;3.53;;;1.00;;
48835;SDS011;62581;47.342;7.908;2023-12-22T09:42:47;3.17;;;1.20;;
48835;SDS011;62581;47.342;7.908;2023-12-22T09:45:17;7.03;;;1.02;;
48835;SDS011;62581;47.342;7.908;2023-12-22T09:47:45;4.93;;;1.10;;
48835;SDS011;62581;47.342;7.908;2023-12-22T09:50:13;4.90;;;1.40;;
48835;SDS011;62581;47.342;7.908;2023-12-22T09:52:42;3.43;;;1.10;;
48835;SDS011;62581;47.342;7.908;2023-12-22T09:55:11;9.48;;;1.45;;
48835;SDS011;62581;47.342;7.908;2023-12-22T09:57:39;9.93;;;2.33;;
48835;SDS011;62581;47.342;7.908;2023-12-22T10:00:06;11.07;;;1.38;;
48835;SDS011;62581;47.342;7.908;2023-12-22T10:02:37;7.03;;;1.73;;
48835;SDS011;62581;47.342;7.908;2023-12-22T10:05:04;5.85;;;1.30;;
48835;SDS011;62581;47.342;7.908;2023-12-22T10:07:31;9.18;;;1.60;;
48835;SDS011;62581;47.342;7.908;2023-12-22T10:09:59;6.50;;;1.25;;
48835;SDS011;62581;47.342;7.908;2023-12-22T10:12:28;6.80;;;1.50;;
48835;SDS011;62581;47.342;7.908;2023-12-22T10:14:56;8.75;;;1.45;;
48835;SDS011;62581;47.342;7.908;2023-12-22T10:17:26;7.43;;;1.65;;
48835;SDS011;62581;47.342;7.908;2023-12-22T10:22:23;6.55;;;1.50;;
48835;SDS011;62581;47.342;7.908;2023-12-22T10:24:50;5.53;;;1.63;;
48835;SDS011;62581;47.342;7.908;2023-12-22T10:27:17;7.45;;;1.40;;
48835;SDS011;62581;47.342;7.908;2023-12-22T10:29:47;11.38;;;1.42;;
48835;SDS011;62581;47.342;7.908;2023-12-22T10:32:14;5.70;;;1.35;;
48835;SDS011;62581;47.342;7.908;2023-12-22T10:34:41;7.05;;;1.42;;
48835;SDS011;62581;47.342;7.908;2023-12-22T10:37:10;3.50;;;1.20;;
48835;SDS011;62581;47.342;7.908;2023-12-22T10:39:38;5.65;;;1.77;;
48835;SDS011;62581;47.342;7.908;2023-12-22T10:42:06;5.47;;;1.33;;
48835;SDS011;62581;47.342;7.908;2023-12-22T10:44:33;3.35;;;1.27;;
48835;SDS011;62581;47.342;7.908;2023-12-22T10:47:00;8.45;;;2.13;;
48835;SDS011;62581;47.342;7.908;2023-12-22T10:49:28;5.50;;;1.50;;
48835;SDS011;62581;47.342;7.908;2023-12-22T10:51:56;7.68;;;1.63;;
48835;SDS011;62581;47.342;7.908;2023-12-22T10:54:24;8.10;;;1.90;;
48835;SDS011;62581;47.342;7.908;2023-12-22T10:56:52;7.63;;;1.40;;
48835;SDS011;62581;47.342;7.908;2023-12-22T10:59:24;8.75;;;1.58;;
48835;SDS011;62581;47.342;7.908;2023-12-22T11:01:56;9.52;;;2.13;;
48835;SDS011;62581;47.342;7.908;2023-12-22T11:04:25;10.82;;;1.90;;
48835;SDS011;62581;47.342;7.908;2023-12-22T11:06:57;7.80;;;1.90;;
48835;SDS011;62581;47.342;7.908;2023-12-22T11:09:26;6.63;;;1.33;;
48835;SDS011;62581;47.342;7.908;2023-12-22T11:11:58;5.78;;;1.27;;
48835;SDS011;62581;47.342;7.908;2023-12-22T11:14:27;3.10;;;1.30;;
48835;SDS011;62581;47.342;7.908;2023-12-22T11:16:57;3.25;;;0.90;;
48835;SDS011;62581;47.342;7.908;2023-12-22T11:19:27;4.70;;;1.05;;
48835;SDS011;62581;47.342;7.908;2023-12-22T11:21:57;3.28;;;0.98;;
48835;SDS011;62581;47.342;7.908;2023-12-22T11:24:25;7.70;;;1.33;;
48835;SDS011;62581;47.342;7.908;2023-12-22T11:26:55;2.22;;;0.73;;
48835;SDS011;62581;47.342;7.908;2023-12-22T11:29:25;2.75;;;0.88;;
48835;SDS011;62581;47.342;7.908;2023-12-22T11:31:52;4.18;;;1.63;;
48835;SDS011;62581;47.342;7.908;2023-12-22T11:34:22;6.10;;;1.83;;
48835;SDS011;62581;47.342;7.908;2023-12-22T11:36:51;7.28;;;1.00;;
48835;SDS011;62581;47.342;7.908;2023-12-22T11:41:49;7.47;;;1.38;;
48835;SDS011;62581;47.342;7.908;2023-12-22T11:44:17;2.03;;;1.13;;
48835;SDS011;62581;47.342;7.908;2023-12-22T11:46:45;5.15;;;1.70;;
48835;SDS011;62581;47.342;7.908;2023-12-22T11:49:12;2.58;;;0.80;;
48835;SDS011;62581;47.342;7.908;2023-12-22T11:51:39;2.53;;;1.05;;
48835;SDS011;62581;47.342;7.908;2023-12-22T11:57:09;1.55;;;0.75;;
48835;SDS011;62581;47.342;7.908;2023-12-22T11:59:56;5.32;;;1.05;;
48835;SDS011;62581;47.342;7.908;2023-12-22T12:02:24;2.80;;;1.20;;
48835;SDS011;62581;47.342;7.908;2023-12-22T12:04:52;1.80;;;0.80;;
48835;SDS011;62581;47.342;7.908;2023-12-22T12:07:38;4.32;;;1.02;;
48835;SDS011;62581;47.342;7.908;2023-12-22T12:10:10;2.65;;;0.80;;
48835;SDS011;62581;47.342;7.908;2023-12-22T12:12:40;3.15;;;0.85;;
48835;SDS011;62581;47.342;7.908;2023-12-22T12:15:07;0.80;;;0.80;;
48835;SDS011;62581;47.342;7.908;2023-12-22T12:17:39;8.55;;;1.00;;
48835;SDS011;62581;47.342;7.908;2023-12-22T12:20:08;2.83;;;0.80;;
48835;SDS011;62581;47.342;7.908;2023-12-22T12:22:36;0.80;;;0.80;;
48835;SDS011;62581;47.342;7.908;2023-12-22T12:25:08;1.63;;;0.60;;
48835;SDS011;62581;47.342;7.908;2023-12-22T12:27:36;3.45;;;0.50;;
48835;SDS011;62581;47.342;7.908;2023-12-22T12:30:10;0.73;;;0.50;;
48835;SDS011;62581;47.342;7.908;2023-12-22T12:32:40;2.78;;;0.70;;
48835;SDS011;62581;47.342;7.908;2023-12-22T12:35:10;2.15;;;0.70;;
48835;SDS011;62581;47.342;7.908;2023-12-22T12:37:37;1.30;;;0.70;;
48835;SDS011;62581;47.342;7.908;2023-12-22T12:40:06;1.48;;;0.55;;
48835;SDS011;62581;47.342;7.908;2023-12-22T12:42:35;0.82;;;0.50;;
48835;SDS011;62581;47.342;7.908;2023-12-22T12:45:04;0.50;;;0.50;;
48835;SDS011;62581;47.342;7.908;2023-12-22T12:47:33;0.68;;;0.50;;
48835;SDS011;62581;47.342;7.908;2023-12-22T12:50:00;0.90;;;0.30;;
48835;SDS011;62581;47.342;7.908;2023-12-22T12:52:28;1.23;;;0.50;;
48835;SDS011;62581;47.342;7.908;2023-12-22T12:54:55;2.63;;;1.10;;
48835;SDS011;62581;47.342;7.908;2023-12-22T12:57:23;0.50;;;0.40;;
48835;SDS011;62581;47.342;7.908;2023-12-22T12:59:51;0.55;;;0.50;;
48835;SDS011;62581;47.342;7.908;2023-12-22T13:02:18;1.65;;;0.60;;
48835;SDS011;62581;47.342;7.908;2023-12-22T13:04:48;0.60;;;0.55;;
48835;SDS011;62581;47.342;7.908;2023-12-22T13:07:23;1.17;;;0.50;;
48835;SDS011;62581;47.342;7.908;2023-12-22T13:09:51;0.73;;;0.40;;
48835;SDS011;62581;47.342;7.908;2023-12-22T13:12:19;1.15;;;0.40;;
48835;SDS011;62581;47.342;7.908;2023-12-22T13:14:46;1.27;;;0.40;;
48835;SDS011;62581;47.342;7.908;2023-12-22T13:17:14;0.40;;;0.38;;
48835;SDS011;62581;47.342;7.908;2023-12-22T13:19:41;0.82;;;0.50;;
48835;SDS011;62581;47.342;7.908;2023-12-22T13:22:10;0.60;;;0.50;;
48835;SDS011;62581;47.342;7.908;2023-12-22T13:24:37;1.00;;;0.50;;
48835;SDS011;62581;47.342;7.908;2023-12-22T13:27:04;0.40;;;0.40;;
48835;SDS011;62581;47.342;7.908;2023-12-22T13:29:41;1.00;;;0.60;;
48835;SDS011;62581;47.342;7.908;2023-12-22T13:32:14;0.65;;;0.50;;
48835;SDS011;62581;47.342;7.908;2023-12-22T13:34:46;1.23;;;0.50;;
48835;SDS011;62581;47.342;7.908;2023-12-22T13:37:18;0.70;;;0.40;;
48835;SDS011;62581;47.342;7.908;2023-12-22T13:42:15;1.00;;;0.50;;
48835;SDS011;62581;47.342;7.908;2023-12-22T13:44:45;1.60;;;0.40;;
48835;SDS011;62581;47.342;7.908;2023-12-22T13:47:14;2.58;;;0.47;;
48835;SDS011;62581;47.342;7.908;2023-12-22T13:49:42;1.73;;;0.50;;
48835;SDS011;62581;47.342;7.908;2023-12-22T13:55:10;0.50;;;0.40;;
48835;SDS011;62581;47.342;7.908;2023-12-22T13:57:38;0.40;;;0.40;;
48835;SDS011;62581;47.342;7.908;2023-12-22T14:02:51;0.50;;;0.45;;
48835;SDS011;62581;47.342;7.908;2023-12-22T14:05:19;0.57;;;0.40;;
48835;SDS011;62581;47.342;7.908;2023-12-22T14:07:46;1.05;;;0.70;;
48835;SDS011;62581;47.342;7.908;2023-12-22T14:10:14;0.50;;;0.50;;
48835;SDS011;62581;47.342;7.908;2023-12-22T14:12:41;0.50;;;0.40;;
48835;SDS011;62581;47.342;7.908;2023-12-22T14:15:09;0.57;;;0.50;;
48835;SDS011;62581;47.342;7.908;2023-12-22T14:17:36;1.90;;;0.70;;
48835;SDS011;62581;47.342;7.908;2023-12-22T14:20:04;0.55;;;0.40;;
48835;SDS011;62581;47.342;7.908;2023-12-22T14:22:34;0.47;;;0.45;;
48835;SDS011;62581;47.342;7.908;2023-12-22T14:25:02;0.63;;;0.50;;
48835;SDS011;62581;47.342;7.908;2023-12-22T14:27:31;0.50;;;0.40;;
48835;SDS011;62581;47.342;7.908;2023-12-22T14:29:58;0.60;;;0.40;;
48835;SDS011;62581;47.342;7.908;2023-12-22T14:32:25;0.30;;;0.30;;
48835;SDS011;62581;47.342;7.908;2023-12-22T14:34:52;0.60;;;0.40;;
48835;SDS011;62581;47.342;7.908;2023-12-22T14:37:18;1.63;;;0.40;;
48835;SDS011;62581;47.342;7.908;2023-12-22T14:39:46;1.52;;;0.50;;
48835;SDS011;62581;47.342;7.908;2023-12-22T14:42:13;1.00;;;0.40;;
48835;SDS011;62581;47.342;7.908;2023-12-22T14:44:42;0.30;;;0.30;;
48835;SDS011;62581;47.342;7.908;2023-12-22T14:47:09;1.88;;;0.60;;
48835;SDS011;62581;47.342;7.908;2023-12-22T14:49:35;0.85;;;0.40;;
48835;SDS011;62581;47.342;7.908;2023-12-22T14:52:02;0.90;;;0.57;;
48835;SDS011;62581;47.342;7.908;2023-12-22T14:54:29;2.70;;;0.75;;
48835;SDS011;62581;47.342;7.908;2023-12-22T14:56:56;0.40;;;0.40;;
48835;SDS011;62581;47.342;7.908;2023-12-22T14:59:23;0.98;;;0.50;;
48835;SDS011;62581;47.342;7.908;2023-12-22T15:01:51;0.68;;;0.68;;
48835;SDS011;62581;47.342;7.908;2023-12-22T15:04:18;0.50;;;0.50;;
48835;SDS011;62581;47.342;7.908;2023-12-22T15:06:45;0.50;;;0.45;;
48835;SDS011;62581;47.342;7.908;2023-12-22T15:09:12;0.77;;;0.45;;
48835;SDS011;62581;47.342;7.908;2023-12-22T15:11:42;0.30;;;0.30;;
48835;SDS011;62581;47.342;7.908;2023-12-22T15:14:10;1.00;;;0.60;;
48835;SDS011;62581;47.342;7.908;2023-12-22T15:16:40;0.52;;;0.52;;